Time;durP1;ratioP1;P1;durP2;ratioP2;P2;SDS_P1;SDS_P2;PMS_P1;PMS_P2;Temp;Humidity;BMP_temperature;BMP_pressure;BME280_temperature;BME280_humidity;BME280_pressure;Samples;Min_cycle;Max_cycle;Signal;HPM_P1;HPM_P2
2022/12/28 00:02:08;;;;;;;0.20;0.20;;;1.10;99.90;;;;;;5052796;28;20608;-62
2022/12/28 00:04:34;;;;;;;0.30;0.20;;;1.10;99.90;;;;;;5052915;28;20201;-65
2022/12/28 00:06:59;;;;;;;0.77;0.67;;;1.10;99.90;;;;;;5052566;28;20182;-63
2022/12/28 00:09:25;;;;;;;0.40;0.40;;;1.10;99.90;;;;;;5052685;28;20177;-65
2022/12/28 00:11:50;;;;;;;0.20;0.20;;;1.10;99.90;;;;;;5051701;28;20687;-63
2022/12/28 00:14:16;;;;;;;0.00;0.00;;;1.10;99.90;;;;;;5051581;28;20205;-67
2022/12/28 00:16:42;;;;;;;0.40;0.40;;;1.10;99.90;;;;;;5050442;28;20209;-63
2022/12/28 00:19:15;;;;;;;0.20;0.20;;;1.10;99.90;;;;;;5052392;28;20268;-64
2022/12/28 00:21:42;;;;;;;0.03;0.03;;;1.10;99.90;;;;;;5049975;28;20185;-64
2022/12/28 00:24:18;;;;;;;0.50;0.50;;;1.10;99.90;;;;;;5051677;28;20193;-65
2022/12/28 00:26:43;;;;;;;0.40;0.40;;;1.20;99.90;;;;;;5051562;28;20185;-65
2022/12/28 00:29:10;;;;;;;0.10;0.10;;;1.20;99.90;;;;;;5052091;28;20193;-65
2022/12/28 00:31:36;;;;;;;0.33;0.30;;;1.20;99.90;;;;;;5052355;28;20166;-65
2022/12/28 00:34:02;;;;;;;0.00;0.00;;;1.20;99.90;;;;;;5052111;28;20189;-65
2022/12/28 00:36:29;;;;;;;0.10;0.10;;;1.20;99.90;;;;;;5052267;28;20291;-65
2022/12/28 00:38:54;;;;;;;0.10;0.10;;;1.20;99.90;;;;;;5052286;28;20204;-65
2022/12/28 00:41:20;;;;;;;0.65;0.65;;;1.20;99.90;;;;;;5052353;28;20641;-65
2022/12/28 00:43:45;;;;;;;0.00;0.00;;;1.20;99.90;;;;;;5052319;28;20177;-64
2022/12/28 00:46:11;;;;;;;0.00;0.00;;;1.20;99.90;;;;;;5051959;28;20181;-65
2022/12/28 00:48:37;;;;;;;0.00;0.00;;;1.20;99.90;;;;;;5051578;28;20653;-64
2022/12/28 00:51:08;;;;;;;0.50;0.50;;;1.20;99.90;;;;;;5052099;28;20212;-64
2022/12/28 00:53:33;;;;;;;0.38;0.32;;;1.30;99.90;;;;;;5052198;28;20264;-64
2022/12/28 00:56:10;;;;;;;0.77;0.40;;;1.30;99.90;;;;;;5051351;28;20303;-64
2022/12/28 00:58:36;;;;;;;2.40;1.23;;;1.30;99.90;;;;;;5051679;28;20219;-64
2022/12/28 01:01:03;;;;;;;0.10;0.10;;;1.30;99.90;;;;;;5050917;28;20217;-65
2022/12/28 01:03:29;;;;;;;0.10;0.10;;;1.30;99.90;;;;;;5050172;28;20173;-65
2022/12/28 01:05:54;;;;;;;0.17;0.17;;;1.30;99.90;;;;;;5049481;28;20299;-65
2022/12/28 01:08:20;;;;;;;0.00;0.00;;;1.30;99.90;;;;;;5051631;28;20174;-64
2022/12/28 01:10:46;;;;;;;0.10;0.10;;;1.20;99.90;;;;;;5051622;28;20269;-64
2022/12/28 01:13:11;;;;;;;0.00;0.00;;;1.30;99.90;;;;;;5051532;28;20291;-64
2022/12/28 01:15:37;;;;;;;0.00;0.00;;;1.20;99.90;;;;;;5051641;28;20180;-65
2022/12/28 01:18:03;;;;;;;0.10;0.10;;;1.30;99.90;;;;;;5051344;28;20239;-64
2022/12/28 01:20:28;;;;;;;0.00;0.00;;;1.30;99.90;;;;;;5051561;28;20177;-64
2022/12/28 01:22:54;;;;;;;0.08;0.08;;;1.20;99.90;;;;;;5051696;28;20189;-65
2022/12/28 01:25:20;;;;;;;0.00;0.00;;;1.20;99.90;;;;;;5051546;28;20674;-65
2022/12/28 01:27:45;;;;;;;0.17;0.17;;;1.30;99.90;;;;;;5051689;28;20182;-65
2022/12/28 01:30:13;;;;;;;0.75;0.75;;;1.30;99.90;;;;;;5051406;28;20200;-64
2022/12/28 01:32:39;;;;;;;0.40;0.40;;;1.30;99.90;;;;;;5051419;28;20235;-64
2022/12/28 01:35:04;;;;;;;0.00;0.00;;;1.30;99.90;;;;;;5046972;28;20594;-64
2022/12/28 01:37:30;;;;;;;0.10;0.10;;;1.30;99.90;;;;;;5038254;28;20251;-64
2022/12/28 01:39:56;;;;;;;0.77;0.77;;;1.40;99.90;;;;;;5051722;28;20189;-64
2022/12/28 01:42:21;;;;;;;0.03;0.03;;;1.40;99.90;;;;;;5051263;28;20246;-65
2022/12/28 01:44:49;;;;;;;0.00;0.00;;;1.50;99.90;;;;;;5051300;28;20186;-65
2022/12/28 01:47:33;;;;;;;0.00;0.00;;;1.50;99.90;;;;;;5051593;28;20194;-65
2022/12/28 01:50:03;;;;;;;0.05;0.05;;;1.50;99.90;;;;;;5051261;28;20180;-65
2022/12/28 01:52:40;;;;;;;0.07;0.07;;;1.50;99.90;;;;;;5051557;28;20184;-64
2022/12/28 01:55:14;;;;;;;0.00;0.00;;;1.60;99.90;;;;;;5051188;28;20534;-65
2022/12/28 01:57:49;;;;;;;0.30;0.30;;;1.60;99.90;;;;;;5051833;28;20236;-64
2022/12/28 02:00:16;;;;;;;0.10;0.10;;;1.60;99.90;;;;;;5055024;28;20184;-64
2022/12/28 02:02:47;;;;;;;3.40;0.97;;;1.70;99.90;;;;;;5055032;28;20193;-64
2022/12/28 02:05:14;;;;;;;0.00;0.00;;;1.70;99.90;;;;;;5035221;28;20179;-65
2022/12/28 02:07:54;;;;;;;0.00;0.00;;;1.80;99.90;;;;;;5045188;28;20174;-64
2022/12/28 02:10:21;;;;;;;0.03;0.03;;;1.80;99.90;;;;;;5037618;28;20182;-64
2022/12/28 02:12:46;;;;;;;0.13;0.13;;;1.90;99.90;;;;;;5052665;28;20232;-65
2022/12/28 02:15:12;;;;;;;0.00;0.00;;;1.90;99.90;;;;;;5053977;28;20181;-65
2022/12/28 02:17:38;;;;;;;0.00;0.00;;;2.00;99.90;;;;;;5053585;28;20249;-65
2022/12/28 02:20:05;;;;;;;0.00;0.00;;;2.00;99.90;;;;;;5053728;28;20169;-64
2022/12/28 02:22:46;;;;;;;0.00;0.00;;;2.10;99.90;;;;;;5053756;28;20291;-64
2022/12/28 02:25:36;;;;;;;0.00;0.00;;;2.10;99.90;;;;;;5049312;28;20169;-65
2022/12/28 02:28:35;;;;;;;0.00;0.00;;;2.10;99.90;;;;;;5051574;28;20633;-64
2022/12/28 02:31:11;;;;;;;0.00;0.00;;;2.20;99.90;;;;;;5053257;28;20177;-64
2022/12/28 02:33:49;;;;;;;0.00;0.00;;;2.20;99.90;;;;;;5053219;28;20239;-64
2022/12/28 02:36:23;;;;;;;0.13;0.10;;;2.30;99.90;;;;;;5049810;28;20266;-64
2022/12/28 02:38:52;;;;;;;0.00;0.00;;;2.30;99.90;;;;;;5053593;28;20182;-65
2022/12/28 02:41:21;;;;;;;0.00;0.00;;;2.30;99.90;;;;;;5053250;28;20264;-64
2022/12/28 02:43:47;;;;;;;0.60;0.60;;;2.30;99.90;;;;;;5052470;28;20185;-64
2022/12/28 02:52:17;;;;;;;0.55;0.50;;;2.50;99.90;;;;;;5053269;28;20188;-64
2022/12/28 02:57:39;;;;;;;0.08;0.08;;;2.50;99.90;;;;;;5053502;28;20263;-64
2022/12/28 03:00:13;;;;;;;0.00;0.00;;;2.50;99.90;;;;;;5052335;28;20185;-64
2022/12/28 03:02:53;;;;;;;0.00;0.00;;;2.60;99.90;;;;;;5053124;28;20181;-64
2022/12/28 03:08:39;;;;;;;0.00;0.00;;;2.70;99.90;;;;;;5052784;28;20306;-64
2022/12/28 03:11:11;;;;;;;0.25;0.25;;;2.70;99.90;;;;;;5053858;28;20170;-64
2022/12/28 03:14:02;;;;;;;0.00;0.00;;;2.70;99.90;;;;;;5053436;28;20230;-64
2022/12/28 03:33:10;;;;;;;0.10;0.10;;;2.90;99.90;;;;;;5052714;28;20189;-64
2022/12/28 03:36:12;;;;;;;0.00;0.00;;;2.90;99.90;;;;;;5053235;28;20174;-64
2022/12/28 03:38:49;;;;;;;0.00;0.00;;;3.00;99.90;;;;;;5053346;28;20227;-64
2022/12/28 03:41:30;;;;;;;0.00;0.00;;;3.00;99.90;;;;;;5053175;28;20234;-64
2022/12/28 03:44:00;;;;;;;0.00;0.00;;;3.10;99.90;;;;;;5053348;28;20327;-65
2022/12/28 03:46:32;;;;;;;0.00;0.00;;;3.10;99.90;;;;;;5052999;28;20282;-65
2022/12/28 03:48:59;;;;;;;0.00;0.00;;;3.10;99.90;;;;;;5053187;28;20166;-64
2022/12/28 03:51:27;;;;;;;0.00;0.00;;;3.30;99.90;;;;;;5051799;28;20416;-65
2022/12/28 03:53:52;;;;;;;0.03;0.03;;;3.30;99.90;;;;;;5052849;28;20176;-65
2022/12/28 03:56:24;;;;;;;0.05;0.05;;;3.40;99.90;;;;;;5052379;28;20221;-64
2022/12/28 03:58:49;;;;;;;0.00;0.00;;;3.50;99.90;;;;;;5052496;28;20653;-64
2022/12/28 04:01:15;;;;;;;0.00;0.00;;;3.70;99.90;;;;;;5052745;28;20209;-64
2022/12/28 04:03:41;;;;;;;0.00;0.00;;;3.70;99.90;;;;;;5052373;28;20174;-64
2022/12/28 04:06:10;;;;;;;0.00;0.00;;;3.80;99.90;;;;;;5052631;28;20272;-64
2022/12/28 04:08:36;;;;;;;0.00;0.00;;;3.90;99.90;;;;;;5052293;28;20252;-64
2022/12/28 04:11:01;;;;;;;2.20;0.28;;;4.00;99.90;;;;;;5052538;28;20265;-64
2022/12/28 04:13:30;;;;;;;0.10;0.10;;;4.10;99.90;;;;;;5052218;28;20213;-64
2022/12/28 04:16:01;;;;;;;0.00;0.00;;;4.20;99.90;;;;;;5052180;28;20211;-64
2022/12/28 04:18:30;;;;;;;0.00;0.00;;;4.30;99.90;;;;;;5049037;28;20660;-64
2022/12/28 04:20:56;;;;;;;0.00;0.00;;;4.30;99.90;;;;;;5051701;28;20568;-65
2022/12/28 04:23:22;;;;;;;0.00;0.00;;;4.30;99.90;;;;;;5051203;28;20191;-65
2022/12/28 04:25:59;;;;;;;0.00;0.00;;;4.40;99.90;;;;;;5051579;28;20185;-65
2022/12/28 04:28:24;;;;;;;0.00;0.00;;;4.40;99.90;;;;;;5052489;28;20237;-65
2022/12/28 04:30:50;;;;;;;0.00;0.00;;;4.50;99.90;;;;;;5067269;28;20185;-64
2022/12/28 04:33:15;;;;;;;0.00;0.00;;;4.50;99.90;;;;;;5072358;28;20195;-64
2022/12/28 04:35:41;;;;;;;0.00;0.00;;;4.60;99.90;;;;;;5051396;28;20272;-64
2022/12/28 04:38:06;;;;;;;0.00;0.00;;;4.60;99.90;;;;;;5052259;28;20191;-64
2022/12/28 04:40:32;;;;;;;0.00;0.00;;;4.70;99.90;;;;;;5051973;28;20528;-64
2022/12/28 04:42:58;;;;;;;0.00;0.00;;;4.70;99.90;;;;;;5052165;28;20186;-65
2022/12/28 04:45:24;;;;;;;0.00;0.00;;;4.80;99.90;;;;;;5052097;28;20182;-65
2022/12/28 04:47:49;;;;;;;0.00;0.00;;;4.90;99.90;;;;;;5051846;28;20197;-64
2022/12/28 04:50:15;;;;;;;0.00;0.00;;;4.90;99.90;;;;;;5051684;28;20671;-64
2022/12/28 04:52:40;;;;;;;0.00;0.00;;;4.90;99.90;;;;;;5051997;28;20261;-64
2022/12/28 04:55:06;;;;;;;0.00;0.00;;;5.00;99.90;;;;;;5051583;28;20640;-65
2022/12/28 04:57:32;;;;;;;0.00;0.00;;;5.10;99.90;;;;;;5051760;28;20209;-65
2022/12/28 04:59:57;;;;;;;0.00;0.00;;;5.10;99.90;;;;;;5051823;28;20578;-65
2022/12/28 05:02:23;;;;;;;0.00;0.00;;;5.10;99.90;;;;;;5051571;28;20688;-65
2022/12/28 05:04:48;;;;;;;0.03;0.03;;;5.20;99.90;;;;;;5051880;28;20185;-64
2022/12/28 05:07:14;;;;;;;0.00;0.00;;;5.20;99.90;;;;;;5051721;28;20177;-64
2022/12/28 05:09:39;;;;;;;1.00;0.38;;;5.20;99.90;;;;;;5051371;28;20220;-64
2022/12/28 05:12:05;;;;;;;0.00;0.00;;;5.30;99.90;;;;;;5051335;28;20236;-65
2022/12/28 05:14:30;;;;;;;0.00;0.00;;;5.30;99.90;;;;;;5051962;28;20165;-65
2022/12/28 05:16:56;;;;;;;0.00;0.00;;;5.40;99.90;;;;;;5051467;28;20216;-65
2022/12/28 05:19:21;;;;;;;0.00;0.00;;;5.50;99.90;;;;;;5051649;28;20231;-65
2022/12/28 05:21:47;;;;;;;0.00;0.00;;;5.50;99.90;;;;;;5050517;28;20177;-64
2022/12/28 05:24:12;;;;;;;0.00;0.00;;;5.60;99.90;;;;;;5051428;28;20199;-65
2022/12/28 05:26:38;;;;;;;0.00;0.00;;;5.70;99.90;;;;;;5051419;28;20205;-64
2022/12/28 05:29:03;;;;;;;0.00;0.00;;;5.80;99.90;;;;;;5051635;28;20209;-65
2022/12/28 05:31:29;;;;;;;0.00;0.00;;;5.80;99.90;;;;;;5050148;28;20227;-65
2022/12/28 05:33:55;;;;;;;0.00;0.00;;;5.80;99.90;;;;;;5054092;28;20173;-64
2022/12/28 05:36:23;;;;;;;0.00;0.00;;;5.90;99.90;;;;;;5055145;28;20549;-65
2022/12/28 05:38:49;;;;;;;0.00;0.00;;;5.90;99.90;;;;;;5055417;28;20200;-64
2022/12/28 05:41:21;;;;;;;0.00;0.00;;;5.90;99.90;;;;;;5055382;28;20174;-64
2022/12/28 05:43:47;;;;;;;0.10;0.10;;;6.00;99.90;;;;;;5055310;28;20184;-65
2022/12/28 05:46:25;;;;;;;0.00;0.00;;;6.00;99.90;;;;;;5055083;28;20178;-65
2022/12/28 05:48:51;;;;;;;0.00;0.00;;;6.00;99.90;;;;;;5055422;28;20173;-64
2022/12/28 05:51:19;;;;;;;0.00;0.00;;;6.00;99.90;;;;;;5055208;28;20193;-64
2022/12/28 05:53:45;;;;;;;0.00;0.00;;;6.00;99.90;;;;;;5055090;28;20278;-64
2022/12/28 05:56:16;;;;;;;0.00;0.00;;;6.00;99.90;;;;;;5053740;28;20680;-65
2022/12/28 05:58:43;;;;;;;0.00;0.00;;;6.00;99.90;;;;;;5054998;28;20185;-65
2022/12/28 06:01:14;;;;;;;0.00;0.00;;;6.00;99.90;;;;;;5053686;28;20203;-64
2022/12/28 06:03:39;;;;;;;0.00;0.00;;;6.00;99.90;;;;;;5055100;28;20295;-65
2022/12/28 06:06:08;;;;;;;0.00;0.00;;;6.10;99.90;;;;;;5054501;28;20307;-64
2022/12/28 06:08:35;;;;;;;0.10;0.10;;;6.10;99.90;;;;;;5054738;28;20295;-64
2022/12/28 06:11:02;;;;;;;0.00;0.00;;;6.10;99.90;;;;;;5054750;28;20181;-64
2022/12/28 06:13:28;;;;;;;0.00;0.00;;;6.20;99.90;;;;;;5054698;28;20225;-64
2022/12/28 06:15:54;;;;;;;0.10;0.10;;;6.20;99.90;;;;;;5054208;28;20228;-64
2022/12/28 06:18:19;;;;;;;0.00;0.00;;;6.30;99.90;;;;;;5054793;28;20572;-64
2022/12/28 06:20:46;;;;;;;0.00;0.00;;;6.30;99.90;;;;;;5054446;28;20703;-64
2022/12/28 06:23:12;;;;;;;0.00;0.00;;;6.40;99.90;;;;;;5054624;28;20184;-65
2022/12/28 06:25:37;;;;;;;0.00;0.00;;;6.40;99.90;;;;;;5054564;28;20189;-64
2022/12/28 06:28:03;;;;;;;0.00;0.00;;;6.40;99.90;;;;;;5054366;28;20211;-64
2022/12/28 06:30:28;;;;;;;0.00;0.00;;;6.50;99.90;;;;;;5054605;28;20664;-64
2022/12/28 06:32:57;;;;;;;0.00;0.00;;;6.50;99.90;;;;;;5053983;28;20272;-65
2022/12/28 06:35:23;;;;;;;0.00;0.00;;;6.50;99.90;;;;;;5053530;28;20181;-64
2022/12/28 06:37:48;;;;;;;0.00;0.00;;;6.50;99.90;;;;;;5054612;28;20287;-65
2022/12/28 06:40:14;;;;;;;0.00;0.00;;;6.50;99.90;;;;;;5052932;28;20182;-65
2022/12/28 06:42:40;;;;;;;0.17;0.17;;;6.60;99.90;;;;;;5054891;28;20223;-64
2022/12/28 06:45:06;;;;;;;0.00;0.00;;;6.60;99.90;;;;;;5064081;28;20189;-65
2022/12/28 06:47:34;;;;;;;0.00;0.00;;;6.60;99.90;;;;;;5054409;28;20711;-65
2022/12/28 06:50:00;;;;;;;0.00;0.00;;;6.60;99.90;;;;;;5071524;28;20180;-65
2022/12/28 06:52:26;;;;;;;0.00;0.00;;;6.60;99.90;;;;;;5057348;28;20177;-65
2022/12/28 06:54:51;;;;;;;0.47;0.30;;;6.60;99.90;;;;;;5054503;28;20235;-65
2022/12/28 06:57:17;;;;;;;0.10;0.10;;;6.70;99.90;;;;;;5053692;28;20676;-65
2022/12/28 06:59:42;;;;;;;0.10;0.10;;;6.60;99.90;;;;;;5054366;28;20182;-65
2022/12/28 07:02:08;;;;;;;0.00;0.00;;;6.70;99.90;;;;;;5057667;28;20208;-65
2022/12/28 07:04:34;;;;;;;0.00;0.00;;;6.60;99.90;;;;;;5054330;28;20177;-65
2022/12/28 07:06:59;;;;;;;0.00;0.00;;;6.60;99.90;;;;;;5052941;28;20196;-65
2022/12/28 07:09:25;;;;;;;0.00;0.00;;;6.60;99.90;;;;;;5054163;28;20291;-66
2022/12/28 07:11:50;;;;;;;0.00;0.00;;;6.60;99.90;;;;;;5051455;28;20726;-65
2022/12/28 07:14:17;;;;;;;0.00;0.00;;;6.50;99.90;;;;;;5053979;28;20169;-65
2022/12/28 07:16:43;;;;;;;0.00;0.00;;;6.50;99.90;;;;;;5053208;28;20209;-65
2022/12/28 07:19:09;;;;;;;0.00;0.00;;;6.50;99.90;;;;;;5053269;28;20197;-66
2022/12/28 07:21:37;;;;;;;0.00;0.00;;;6.50;99.90;;;;;;5053027;28;20178;-65
2022/12/28 07:24:05;;;;;;;0.00;0.00;;;6.50;99.90;;;;;;5053701;28;20181;-65
2022/12/28 07:26:32;;;;;;;0.00;0.00;;;6.50;99.90;;;;;;5053414;28;20176;-65
2022/12/28 07:29:00;;;;;;;0.00;0.00;;;6.50;99.90;;;;;;5053324;28;20188;-65
2022/12/28 07:31:33;;;;;;;0.00;0.00;;;6.50;99.90;;;;;;5053453;28;20197;-65
2022/12/28 07:33:59;;;;;;;0.00;0.00;;;6.50;99.90;;;;;;5052965;28;20181;-64
2022/12/28 07:36:27;;;;;;;0.00;0.00;;;6.50;99.90;;;;;;5054776;28;20225;-65
2022/12/28 07:38:53;;;;;;;0.00;0.00;;;6.50;99.90;;;;;;5052781;28;20189;-65
2022/12/28 07:41:23;;;;;;;0.00;0.00;;;6.50;99.90;;;;;;5053270;28;20189;-65
2022/12/28 07:43:49;;;;;;;0.00;0.00;;;6.50;99.90;;;;;;5052541;28;20189;-65
2022/12/28 07:46:23;;;;;;;0.13;0.13;;;6.50;99.90;;;;;;5052706;28;20231;-63
2022/12/28 07:48:50;;;;;;;0.05;0.05;;;6.50;99.90;;;;;;5052542;28;20267;-64
2022/12/28 07:51:31;;;;;;;0.00;0.00;;;6.60;99.90;;;;;;5052825;28;20641;-60
2022/12/28 07:53:58;;;;;;;0.85;0.20;;;6.60;99.90;;;;;;5040471;28;20192;-61
2022/12/28 07:56:25;;;;;;;0.00;0.00;;;6.60;99.90;;;;;;5051922;28;20217;-60
2022/12/28 07:58:52;;;;;;;0.10;0.10;;;6.60;99.90;;;;;;5052602;28;20182;-63
2022/12/28 08:01:21;;;;;;;0.00;0.00;;;6.60;99.90;;;;;;5052441;28;20181;-61
2022/12/28 08:03:47;;;;;;;0.00;0.00;;;6.70;99.90;;;;;;5051942;28;20185;-63
2022/12/28 08:06:17;;;;;;;0.00;0.00;;;6.70;99.90;;;;;;5051959;28;20193;-63
2022/12/28 08:08:44;;;;;;;0.00;0.00;;;6.70;99.90;;;;;;5052472;28;20219;-62
2022/12/28 08:11:16;;;;;;;0.00;0.00;;;6.70;99.90;;;;;;5052136;28;20201;-65
2022/12/28 08:13:44;;;;;;;0.00;0.00;;;6.70;99.90;;;;;;5051906;28;20247;-63
2022/12/28 08:16:12;;;;;;;0.20;0.20;;;6.70;99.90;;;;;;5052435;28;20209;-63
2022/12/28 08:18:39;;;;;;;0.00;0.00;;;6.70;99.90;;;;;;5050674;28;20186;-63
2022/12/28 08:21:09;;;;;;;0.00;0.00;;;6.70;99.90;;;;;;5051479;28;20252;-63
2022/12/28 08:23:35;;;;;;;0.00;0.00;;;6.70;99.90;;;;;;5052527;28;20287;-63
2022/12/28 08:26:21;;;;;;;0.00;0.00;;;6.70;99.90;;;;;;5052471;28;20174;-63
2022/12/28 08:28:49;;;;;;;0.00;0.00;;;6.70;99.90;;;;;;5051135;28;20188;-63
2022/12/28 08:31:20;;;;;;;0.00;0.00;;;6.70;99.90;;;;;;5052503;28;20688;-63
2022/12/28 08:33:47;;;;;;;0.08;0.08;;;6.70;99.90;;;;;;5052438;28;20178;-63
2022/12/28 08:36:13;;;;;;;0.00;0.00;;;6.70;99.90;;;;;;5052353;28;20243;-63
2022/12/28 08:38:40;;;;;;;0.00;0.00;;;6.80;99.90;;;;;;5052294;28;20201;-63
2022/12/28 08:41:07;;;;;;;0.00;0.00;;;6.80;99.90;;;;;;5052089;28;20630;-63
2022/12/28 08:43:33;;;;;;;0.00;0.00;;;6.80;99.90;;;;;;5052283;28;20180;-63
2022/12/28 08:46:01;;;;;;;0.10;0.10;;;6.80;99.90;;;;;;5051944;28;20173;-63
2022/12/28 08:48:27;;;;;;;0.00;0.00;;;6.90;99.90;;;;;;5052192;28;20188;-63
2022/12/28 08:50:54;;;;;;;0.00;0.00;;;6.90;99.90;;;;;;5050850;28;20265;-63
2022/12/28 08:53:22;;;;;;;0.00;0.00;;;6.90;99.90;;;;;;5052095;28;20663;-63
2022/12/28 08:55:49;;;;;;;0.00;0.00;;;6.90;99.90;;;;;;5052000;28;20227;-63
2022/12/28 08:58:14;;;;;;;0.00;0.00;;;7.00;99.90;;;;;;5052094;28;20177;-63
2022/12/28 09:00:40;;;;;;;0.03;0.03;;;7.00;99.90;;;;;;5052027;28;20231;-63
2022/12/28 09:03:05;;;;;;;0.00;0.00;;;7.00;99.90;;;;;;5051615;28;20189;-63
2022/12/28 09:05:31;;;;;;;0.00;0.00;;;7.00;99.90;;;;;;5051758;28;20181;-63
2022/12/28 09:07:56;;;;;;;0.00;0.00;;;7.10;99.90;;;;;;5056557;28;20184;-64
2022/12/28 09:10:22;;;;;;;0.00;0.00;;;7.10;99.90;;;;;;5071984;28;20176;-64
2022/12/28 09:12:47;;;;;;;0.10;0.10;;;7.10;99.90;;;;;;5053841;28;20286;-64
2022/12/28 09:15:13;;;;;;;0.03;0.03;;;7.20;99.90;;;;;;5051839;28;20186;-64
2022/12/28 09:17:38;;;;;;;0.00;0.00;;;7.20;99.90;;;;;;5051290;28;20716;-64
2022/12/28 09:20:04;;;;;;;0.00;0.00;;;7.30;99.90;;;;;;5050896;28;20502;-64
2022/12/28 09:22:30;;;;;;;0.13;0.13;;;7.40;99.90;;;;;;5049968;28;20698;-64
2022/12/28 09:24:56;;;;;;;0.00;0.00;;;7.40;99.90;;;;;;5049770;28;20184;-64
2022/12/28 09:27:21;;;;;;;0.00;0.00;;;7.40;99.90;;;;;;5049648;28;20181;-64
2022/12/28 09:29:47;;;;;;;0.00;0.00;;;7.40;99.90;;;;;;5050752;28;20240;-64
2022/12/28 09:32:13;;;;;;;0.05;0.05;;;7.50;99.90;;;;;;5050273;28;20178;-64
2022/12/28 09:34:38;;;;;;;0.00;0.00;;;7.50;99.90;;;;;;5051481;28;20284;-64
2022/12/28 09:37:05;;;;;;;0.00;0.00;;;7.60;99.90;;;;;;5051659;28;20216;-64
2022/12/28 09:39:30;;;;;;;0.00;0.00;;;7.60;99.90;;;;;;5050846;28;20208;-64
2022/12/28 09:42:11;;;;;;;0.00;0.00;;;7.70;99.90;;;;;;5048992;28;20213;-64
2022/12/28 09:44:36;;;;;;;0.00;0.00;;;7.70;99.90;;;;;;5051323;28;20256;-64
2022/12/28 09:47:19;;;;;;;0.00;0.00;;;7.90;99.90;;;;;;5051305;28;20671;-64
2022/12/28 09:50:02;;;;;;;0.00;0.00;;;7.90;99.90;;;;;;5050892;28;20223;-64
2022/12/28 09:52:35;;;;;;;0.00;0.00;;;7.90;99.90;;;;;;5051415;28;20189;-64
2022/12/28 09:55:13;;;;;;;0.00;0.00;;;8.00;99.90;;;;;;5051150;28;20181;-64
2022/12/28 09:57:43;;;;;;;0.00;0.00;;;8.00;99.90;;;;;;5031486;28;20217;-64
2022/12/28 10:00:32;;;;;;;0.00;0.00;;;8.00;99.90;;;;;;5049090;28;20190;-64
2022/12/28 10:03:01;;;;;;;0.00;0.00;;;8.10;99.90;;;;;;5051121;28;20184;-64
2022/12/28 10:05:28;;;;;;;0.00;0.00;;;8.10;99.90;;;;;;5051427;28;20601;-65
2022/12/28 10:07:56;;;;;;;0.00;0.00;;;8.20;99.90;;;;;;5051140;28;20209;-65
2022/12/28 10:10:22;;;;;;;0.00;0.00;;;8.20;99.90;;;;;;5051018;28;20188;-65
2022/12/28 10:12:49;;;;;;;0.00;0.00;;;8.30;99.90;;;;;;5050617;28;20229;-64
2022/12/28 10:15:16;;;;;;;0.00;0.00;;;8.40;99.90;;;;;;5051392;28;20555;-66
2022/12/28 10:17:42;;;;;;;0.00;0.00;;;8.40;99.90;;;;;;5051081;28;20570;-64
2022/12/28 10:20:15;;;;;;;0.00;0.00;;;8.50;99.90;;;;;;5052660;28;20174;-64
2022/12/28 10:22:42;;;;;;;0.00;0.00;;;8.50;99.90;;;;;;5034820;28;20178;-67
2022/12/28 10:25:23;;;;;;;0.00;0.00;;;8.50;99.90;;;;;;5050544;28;20323;-67
2022/12/28 10:27:48;;;;;;;0.00;0.00;;;8.50;99.90;;;;;;5054878;28;20184;-67
2022/12/28 10:30:25;;;;;;;0.00;0.00;;;8.60;99.90;;;;;;5054513;28;20185;-67
2022/12/28 10:32:55;;;;;;;0.00;0.00;;;8.60;99.90;;;;;;5054392;28;20173;-67
2022/12/28 10:35:28;;;;;;;0.00;0.00;;;8.70;99.90;;;;;;5053837;28;20184;-67
2022/12/28 10:38:01;;;;;;;0.00;0.00;;;8.70;99.90;;;;;;5053729;28;20570;-67
2022/12/28 10:40:30;;;;;;;0.00;0.00;;;8.80;99.90;;;;;;5034708;28;20177;-67
2022/12/28 10:42:56;;;;;;;0.00;0.00;;;8.80;99.90;;;;;;5044475;28;20189;-67
2022/12/28 10:45:33;;;;;;;0.10;0.10;;;8.90;99.90;;;;;;5054029;28;20292;-67
2022/12/28 10:48:00;;;;;;;0.00;0.00;;;8.90;99.90;;;;;;5034349;28;20517;-67
2022/12/28 10:50:48;;;;;;;0.00;0.00;;;9.00;99.90;;;;;;5042152;28;20633;-67
2022/12/28 10:53:22;;;;;;;0.00;0.00;;;9.10;99.90;;;;;;5054364;28;20170;-66
2022/12/28 10:55:48;;;;;;;0.00;0.00;;;9.20;99.90;;;;;;5055293;28;20271;-67
2022/12/28 10:58:18;;;;;;;0.00;0.00;;;9.30;99.90;;;;;;5054136;28;20280;-67
2022/12/28 11:00:56;;;;;;;0.00;0.00;;;9.40;99.90;;;;;;5054017;28;20274;-67
2022/12/28 11:03:27;;;;;;;0.00;0.00;;;9.50;99.90;;;;;;5053794;28;20181;-67
2022/12/28 11:06:11;;;;;;;0.00;0.00;;;9.70;99.90;;;;;;5054037;28;20178;-67
2022/12/28 11:08:39;;;;;;;0.00;0.00;;;9.80;99.90;;;;;;5053787;28;20690;-67
2022/12/28 11:11:05;;;;;;;0.10;0.10;;;9.90;99.90;;;;;;5053103;28;20240;-67
2022/12/28 11:13:32;;;;;;;0.00;0.00;;;10.00;99.90;;;;;;5053572;28;20229;-67
2022/12/28 11:15:58;;;;;;;0.00;0.00;;;10.20;99.90;;;;;;5051598;28;20265;-68
2022/12/28 11:18:24;;;;;;;0.00;0.00;;;10.20;99.90;;;;;;5053399;28;20181;-65
2022/12/28 11:20:52;;;;;;;0.00;0.00;;;10.60;99.90;;;;;;5053359;28;20178;-66
2022/12/28 11:23:19;;;;;;;0.00;0.00;;;11.10;99.90;;;;;;5053335;28;20189;-64
2022/12/28 11:25:45;;;;;;;0.00;0.00;;;11.20;99.90;;;;;;5052058;28;20687;-63
2022/12/28 11:28:21;;;;;;;0.00;0.00;;;11.10;99.90;;;;;;5053277;28;20177;-64
2022/12/28 11:30:49;;;;;;;0.00;0.00;;;11.00;99.90;;;;;;5052248;28;20208;-68
2022/12/28 11:33:31;;;;;;;0.00;0.00;;;10.80;99.90;;;;;;5053163;28;20177;-64
2022/12/28 11:35:57;;;;;;;0.00;0.00;;;10.60;99.90;;;;;;5052534;28;20213;-63
2022/12/28 11:38:43;;;;;;;0.00;0.00;;;10.50;99.90;;;;;;5053372;28;20623;-66
2022/12/28 11:41:11;;;;;;;0.00;0.00;;;10.40;99.90;;;;;;5053482;28;20205;-66
2022/12/28 11:43:46;;;;;;;0.00;0.00;;;10.30;99.90;;;;;;5053313;28;20173;-66
2022/12/28 11:46:20;;;;;;;0.00;0.00;;;10.30;99.90;;;;;;5053078;28;20602;-66
2022/12/28 11:49:02;;;;;;;0.00;0.00;;;10.30;99.90;;;;;;5053283;28;20185;-66
2022/12/28 11:51:35;;;;;;;0.00;0.00;;;10.30;99.90;;;;;;5053293;28;20161;-66
2022/12/28 11:54:01;;;;;;;0.00;0.00;;;10.40;99.90;;;;;;5053088;28;20216;-67
2022/12/28 11:56:46;;;;;;;0.00;0.00;;;10.50;99.90;;;;;;5053010;28;20209;-66
2022/12/28 11:59:22;;;;;;;0.00;0.00;;;10.50;99.90;;;;;;5052992;28;20257;-66
2022/12/28 12:01:54;;;;;;;0.00;0.00;;;10.60;99.90;;;;;;5052904;28;20179;-66
2022/12/28 12:04:34;;;;;;;0.15;0.15;;;10.60;99.90;;;;;;5052959;28;20169;-66
2022/12/28 12:07:02;;;;;;;0.00;0.00;;;10.70;99.90;;;;;;5052701;28;20188;-66
2022/12/28 12:09:42;;;;;;;0.00;0.00;;;10.80;99.90;;;;;;5052917;28;20174;-66
2022/12/28 12:12:13;;;;;;;0.00;0.00;;;10.80;99.90;;;;;;5052704;28;20252;-66
2022/12/28 12:14:43;;;;;;;0.00;0.00;;;10.90;99.90;;;;;;5052756;28;20173;-66
2022/12/28 12:17:43;;;;;;;0.00;0.00;;;11.00;99.90;;;;;;5052177;28;20435;-66
2022/12/28 12:20:38;;;;;;;0.00;0.00;;;11.10;99.90;;;;;;5052349;28;20185;-66
2022/12/28 12:23:16;;;;;;;0.00;0.00;;;11.10;99.90;;;;;;5035757;28;20516;-66
2022/12/28 12:25:47;;;;;;;0.00;0.00;;;11.10;99.90;;;;;;5055776;28;20551;-66
2022/12/28 12:28:47;;;;;;;0.00;0.00;;;11.20;99.90;;;;;;5053189;28;20277;-66
2022/12/28 12:31:28;;;;;;;0.00;0.00;;;11.20;99.90;;;;;;5051034;28;20185;-65
2022/12/28 12:34:02;;;;;;;0.00;0.00;;;11.20;99.90;;;;;;5051631;28;20625;-62
2022/12/28 12:37:15;;;;;;;0.00;0.00;;;11.20;99.90;;;;;;5052320;28;20545;-66
2022/12/28 12:40:02;;;;;;;0.00;0.00;;;11.10;99.90;;;;;;5051733;28;20319;-65
2022/12/28 12:42:56;;;;;;;0.10;0.10;;;11.00;99.90;;;;;;5034496;28;20534;-66
2022/12/28 12:46:03;;;;;;;0.00;0.00;;;11.00;99.90;;;;;;5050114;28;20220;-66
2022/12/28 12:48:47;;;;;;;0.00;0.00;;;11.00;99.90;;;;;;5034259;28;20267;-66
2022/12/28 12:51:49;;;;;;;0.00;0.00;;;11.00;99.90;;;;;;5051050;28;20625;-65
2022/12/28 12:54:38;;;;;;;0.00;0.00;;;11.00;99.90;;;;;;5050156;28;20705;-66
2022/12/28 12:57:24;;;;;;;0.00;0.00;;;11.00;99.90;;;;;;5051306;28;20209;-66
2022/12/28 13:00:13;;;;;;;0.00;0.00;;;11.10;99.90;;;;;;5051669;28;20185;-66
2022/12/28 13:02:56;;;;;;;0.00;0.00;;;11.10;99.90;;;;;;5051203;28;20185;-66
2022/12/28 13:05:25;;;;;;;0.00;0.00;;;11.10;99.90;;;;;;5051572;28;20216;-66
2022/12/28 13:07:55;;;;;;;0.00;0.00;;;11.10;99.90;;;;;;5051493;28;20185;-66
2022/12/28 13:10:43;;;;;;;0.10;0.10;;;11.10;99.90;;;;;;5051317;28;20177;-66
2022/12/28 13:13:18;;;;;;;0.00;0.00;;;11.10;99.90;;;;;;5043723;28;20316;-66
2022/12/28 13:15:43;;;;;;;0.00;0.00;;;11.00;99.90;;;;;;5051305;28;20199;-68
2022/12/28 13:18:18;;;;;;;0.00;0.00;;;11.00;99.90;;;;;;5050848;28;20217;-66
2022/12/28 13:20:58;;;;;;;0.00;0.00;;;11.00;99.90;;;;;;5049978;28;20544;-65
2022/12/28 13:23:24;;;;;;;0.00;0.00;;;11.00;99.90;;;;;;5051482;28;20185;-65
2022/12/28 13:25:56;;;;;;;0.00;0.00;;;10.90;99.90;;;;;;5051232;28;20273;-66
2022/12/28 13:28:27;;;;;;;0.00;0.00;;;10.90;99.90;;;;;;5051247;28;20184;-66
2022/12/28 13:31:17;;;;;;;0.00;0.00;;;10.90;99.90;;;;;;5050917;28;20247;-66
2022/12/28 13:34:15;;;;;;;0.00;0.00;;;10.90;99.90;;;;;;5051308;28;20205;-66
2022/12/28 13:36:53;;;;;;;0.00;0.00;;;10.90;99.90;;;;;;5031337;28;20233;-66
2022/12/28 13:39:19;;;;;;;0.00;0.00;;;10.80;99.90;;;;;;5051210;28;20173;-66
2022/12/28 13:41:51;;;;;;;0.00;0.00;;;10.80;99.90;;;;;;5051187;28;20186;-66